Time;durP1;ratioP1;P1;durP2;ratioP2;P2;SDS_P1;SDS_P2;PMS_P1;PMS_P2;Temp;Humidity;BMP_temperature;BMP_pressure;BME280_temperature;BME280_humidity;BME280_pressure;Samples;Min_cycle;Max_cycle;Signal;HPM_P1;HPM_P2
2021/03/15 00:00:26;;;;;;;1999.90;999.90;;;7.00;99.90;;;;;;6249335;23;20023;-95
2021/03/15 00:02:54;;;;;;;1999.90;999.90;;;6.90;99.90;;;;;;6249618;23;20043;-95
2021/03/15 00:05:21;;;;;;;1999.90;999.90;;;6.80;99.90;;;;;;6249397;23;20024;-95
2021/03/15 00:07:49;;;;;;;1999.90;999.90;;;6.80;99.90;;;;;;6249223;23;20462;-96
2021/03/15 00:10:17;;;;;;;1999.90;999.90;;;6.70;99.90;;;;;;6249918;23;20075;-96
2021/03/15 00:12:44;;;;;;;1999.90;999.90;;;6.70;99.90;;;;;;6249225;23;20074;-95
2021/03/15 00:15:13;;;;;;;1999.90;999.90;;;6.70;99.90;;;;;;6248725;23;20047;-95
2021/03/15 00:17:41;;;;;;;1999.90;999.90;;;6.70;99.90;;;;;;6249122;23;20070;-96
2021/03/15 00:20:12;;;;;;;1999.90;999.90;;;6.70;99.90;;;;;;6249184;23;20020;-94
2021/03/15 00:22:40;;;;;;;1999.90;999.90;;;6.60;99.90;;;;;;6249080;23;20027;-96
2021/03/15 00:25:09;;;;;;;1999.90;999.90;;;6.60;99.90;;;;;;6248764;23;20074;-95
2021/03/15 00:27:37;;;;;;;1999.90;999.90;;;6.60;99.90;;;;;;6249469;23;20020;-95
2021/03/15 00:30:06;;;;;;;1999.90;999.90;;;6.70;99.90;;;;;;6249151;23;20020;-95
2021/03/15 00:32:33;;;;;;;1999.90;999.90;;;6.70;99.90;;;;;;6249381;23;20020;-95
2021/03/15 00:35:02;;;;;;;1999.90;999.90;;;6.70;99.90;;;;;;6249260;23;20044;-95
2021/03/15 00:37:29;;;;;;;1999.90;999.90;;;6.70;99.90;;;;;;6248590;23;20020;-94
2021/03/15 00:39:57;;;;;;;1999.90;999.90;;;6.70;99.90;;;;;;6248777;23;20455;-95
2021/03/15 00:42:24;;;;;;;1999.90;999.90;;;6.70;99.90;;;;;;6249934;23;20028;-95
2021/03/15 00:44:52;;;;;;;1999.90;999.90;;;6.70;99.90;;;;;;6248616;23;20056;-95
2021/03/15 00:47:19;;;;;;;1999.90;999.90;;;6.70;99.90;;;;;;6248826;23;20455;-94
2021/03/15 00:49:46;;;;;;;1999.90;999.90;;;6.70;99.90;;;;;;6249601;23;20031;-95
2021/03/15 00:52:14;;;;;;;1999.90;999.90;;;6.70;99.90;;;;;;6248899;23;20020;-94
2021/03/15 00:54:42;;;;;;;1999.90;999.90;;;6.70;99.90;;;;;;6248901;23;20020;-96
2021/03/15 00:57:09;;;;;;;1999.90;999.90;;;6.70;99.90;;;;;;6248400;23;20456;-94
2021/03/15 00:59:36;;;;;;;1999.90;999.90;;;6.70;99.90;;;;;;6249543;23;20024;-95
2021/03/15 01:02:03;;;;;;;1999.90;999.90;;;6.70;99.90;;;;;;6248777;23;20078;-95
2021/03/15 01:04:31;;;;;;;1999.90;999.90;;;6.70;99.90;;;;;;6248488;23;20020;-96
2021/03/15 01:06:58;;;;;;;1999.90;999.90;;;6.70;99.90;;;;;;6248379;23;20020;-94
2021/03/15 01:09:26;;;;;;;1999.90;999.90;;;6.60;99.90;;;;;;6248596;23;20020;-95
2021/03/15 01:11:53;;;;;;;1999.90;999.90;;;6.60;99.90;;;;;;6248250;23;20348;-95
2021/03/15 01:14:21;;;;;;;1999.90;999.90;;;6.60;99.90;;;;;;6249049;23;20068;-95
2021/03/15 01:16:48;;;;;;;1999.90;999.90;;;6.60;99.90;;;;;;6248214;23;20020;-94
2021/03/15 01:19:15;;;;;;;1999.90;999.90;;;6.60;99.90;;;;;;6248817;23;20020;-96
2021/03/15 01:21:42;;;;;;;1999.90;999.90;;;6.60;99.90;;;;;;6248494;23;20020;-95
2021/03/15 01:24:10;;;;;;;1999.90;999.90;;;6.60;99.90;;;;;;6248366;23;20479;-95
2021/03/15 01:26:38;;;;;;;1999.90;999.90;;;6.50;99.90;;;;;;6249152;23;20016;-96
2021/03/15 01:29:05;;;;;;;1999.90;999.90;;;6.50;99.90;;;;;;6248397;23;20366;-94
2021/03/15 01:31:32;;;;;;;1999.90;999.90;;;6.50;99.90;;;;;;6248511;23;20020;-95
2021/03/15 01:34:00;;;;;;;1999.90;999.90;;;6.50;99.90;;;;;;6248686;23;20371;-94
2021/03/15 01:36:27;;;;;;;1999.90;999.90;;;6.50;99.90;;;;;;6249000;23;20047;-94
2021/03/15 01:38:54;;;;;;;1999.90;999.90;;;6.50;99.90;;;;;;6248267;23;20020;-94
2021/03/15 01:41:21;;;;;;;1999.90;999.90;;;6.50;99.90;;;;;;6247980;23;20048;-95
2021/03/15 01:43:49;;;;;;;1999.90;999.90;;;6.60;99.90;;;;;;6248545;23;20023;-95
2021/03/15 01:46:16;;;;;;;1999.90;999.90;;;6.50;99.90;;;;;;6248463;23;20078;-95
2021/03/15 01:48:44;;;;;;;1999.90;999.90;;;6.60;99.90;;;;;;6248335;23;20513;-96
2021/03/15 01:51:11;;;;;;;1999.90;999.90;;;6.50;99.90;;;;;;6248091;23;20024;-95
2021/03/15 01:53:38;;;;;;;1999.90;999.90;;;6.50;99.90;;;;;;6248810;23;20024;-96
2021/03/15 01:56:07;;;;;;;1999.90;999.90;;;6.50;99.90;;;;;;6247884;23;20024;-96
2021/03/15 01:58:34;;;;;;;1999.90;999.90;;;6.60;99.90;;;;;;6248408;23;20379;-95
2021/03/15 02:01:03;;;;;;;1999.90;999.90;;;6.60;99.90;;;;;;6248625;23;20082;-95
2021/03/15 02:03:31;;;;;;;1999.90;999.90;;;6.60;99.90;;;;;;6247689;23;20529;-95
2021/03/15 02:05:58;;;;;;;1999.90;999.90;;;6.50;99.90;;;;;;6248363;23;20024;-95
2021/03/15 02:08:26;;;;;;;1999.90;999.90;;;6.50;99.90;;;;;;6248123;23;20028;-95
2021/03/15 02:10:53;;;;;;;1999.90;999.90;;;6.50;99.90;;;;;;6247733;23;20051;-95
2021/03/15 02:14:10;;;;;;;1999.90;999.90;;;6.50;99.90;;;;;;6247797;23;20377;-94
2021/03/15 02:16:47;;;;;;;1999.90;999.90;;;6.50;99.90;;;;;;6126391;23;20029;-95
2021/03/15 02:19:51;;;;;;;1999.90;999.90;;;6.50;99.90;;;;;;6126116;23;20022;-95
2021/03/15 02:22:35;;;;;;;1999.90;999.90;;;6.50;99.90;;;;;;6219511;23;20447;-94
2021/03/15 02:25:39;;;;;;;1999.90;999.90;;;6.50;99.90;;;;;;6247415;23;20024;-95
2021/03/15 02:28:22;;;;;;;1999.90;999.90;;;6.60;99.90;;;;;;6247971;23;20055;-95
2021/03/15 02:31:14;;;;;;;1999.90;999.90;;;6.60;99.90;;;;;;6247702;23;20024;-95
2021/03/15 02:34:06;;;;;;;1999.90;999.90;;;6.50;99.90;;;;;;6248396;23;20309;-94
2021/03/15 02:36:38;;;;;;;1999.90;999.90;;;6.50;99.90;;;;;;6248555;23;20055;-95
2021/03/15 02:39:11;;;;;;;1999.90;999.90;;;6.50;99.90;;;;;;6249363;23;20024;-95
2021/03/15 02:41:41;;;;;;;1999.90;999.90;;;6.50;99.90;;;;;;6248807;23;20055;-95
2021/03/15 02:44:10;;;;;;;1999.90;999.90;;;6.60;99.90;;;;;;6247348;23;20039;-95
2021/03/15 02:46:40;;;;;;;1999.90;999.90;;;6.60;99.90;;;;;;6247440;23;20028;-95
2021/03/15 02:49:13;;;;;;;1999.90;999.90;;;6.50;99.90;;;;;;6248201;23;20020;-95
2021/03/15 02:51:42;;;;;;;1999.90;999.90;;;6.50;99.90;;;;;;6247442;23;20028;-95
2021/03/15 02:54:12;;;;;;;1999.90;999.90;;;6.50;99.90;;;;;;6248032;23;20024;-94
2021/03/15 02:56:43;;;;;;;1999.90;999.90;;;6.50;99.90;;;;;;6248429;23;20024;-95
2021/03/15 02:59:12;;;;;;;1999.90;999.90;;;6.50;99.90;;;;;;6248468;23;20024;-95
2021/03/15 03:01:40;;;;;;;1999.90;999.90;;;6.50;99.90;;;;;;6247186;23;20478;-95
2021/03/15 03:04:10;;;;;;;1999.90;999.90;;;6.60;99.90;;;;;;6247894;23;20028;-95
2021/03/15 03:06:40;;;;;;;1999.90;999.90;;;6.60;99.90;;;;;;6247884;23;20071;-95
2021/03/15 03:09:11;;;;;;;1999.90;999.90;;;6.60;99.90;;;;;;6247341;23;20031;-94
2021/03/15 03:11:39;;;;;;;1999.90;999.90;;;6.60;99.90;;;;;;6247172;23;20024;-94
2021/03/15 03:14:08;;;;;;;1999.90;999.90;;;6.60;99.90;;;;;;6247222;23;20024;-94
2021/03/15 03:16:38;;;;;;;1999.90;999.90;;;6.50;99.90;;;;;;6247676;23;20027;-94
2021/03/15 03:19:09;;;;;;;1999.90;999.90;;;6.50;99.90;;;;;;6247608;23;20024;-96
2021/03/15 03:21:40;;;;;;;1999.90;999.90;;;6.50;99.90;;;;;;6247809;23;20098;-95
2021/03/15 03:24:09;;;;;;;1999.90;999.90;;;6.40;99.90;;;;;;6247692;23;20020;-95
2021/03/15 03:26:38;;;;;;;1999.90;999.90;;;6.50;99.90;;;;;;6248074;23;20133;-95
2021/03/15 03:29:09;;;;;;;1999.90;999.90;;;6.50;99.90;;;;;;6247663;23;20439;-95
2021/03/15 03:31:42;;;;;;;1999.90;999.90;;;6.50;99.90;;;;;;6248148;23;20024;-95
2021/03/15 03:34:09;;;;;;;1999.90;999.90;;;6.50;99.90;;;;;;6247634;23;20024;-95
2021/03/15 03:36:38;;;;;;;1999.90;999.90;;;6.50;99.90;;;;;;6247526;23;20474;-95
2021/03/15 03:39:08;;;;;;;1999.90;999.90;;;6.50;99.90;;;;;;6247800;23;20044;-94
2021/03/15 03:41:36;;;;;;;1999.90;999.90;;;6.50;99.90;;;;;;6247443;23;20020;-95
2021/03/15 03:44:06;;;;;;;1999.90;999.90;;;6.50;99.90;;;;;;6247718;23;20095;-94
2021/03/15 03:46:34;;;;;;;1999.90;999.90;;;6.50;99.90;;;;;;6247040;23;20021;-95
2021/03/15 03:49:03;;;;;;;1999.90;999.90;;;6.50;99.90;;;;;;6247414;23;20443;-94
2021/03/15 03:51:41;;;;;;;1999.90;999.90;;;6.50;99.90;;;;;;6247704;23;20024;-95
2021/03/15 03:54:13;;;;;;;1999.90;999.90;;;6.50;99.90;;;;;;6248249;23;20082;-96
2021/03/15 03:56:46;;;;;;;1999.90;999.90;;;6.50;99.90;;;;;;6247465;23;20016;-95
2021/03/15 03:59:17;;;;;;;1999.90;999.90;;;6.50;99.90;;;;;;6247966;23;20027;-95
2021/03/15 04:01:48;;;;;;;1999.90;999.90;;;6.50;99.90;;;;;;6251268;23;20046;-96
2021/03/15 04:04:22;;;;;;;1999.90;999.90;;;6.40;99.90;;;;;;6259024;23;20085;-96
2021/03/15 04:06:51;;;;;;;1999.90;999.90;;;6.50;99.90;;;;;;6257734;23;20026;-96
2021/03/15 04:09:27;;;;;;;1999.90;999.90;;;6.50;99.90;;;;;;6259951;23;20039;-96
2021/03/15 04:12:01;;;;;;;1999.90;999.90;;;6.50;99.90;;;;;;6266411;23;20428;-96
2021/03/15 04:17:26;;;;;;;1999.90;999.90;;;6.50;99.90;;;;;;6268137;23;20020;-96
2021/03/15 04:20:01;;;;;;;1999.90;999.90;;;6.50;99.90;;;;;;6264328;23;20024;-96
2021/03/15 04:22:31;;;;;;;1999.90;999.90;;;6.40;99.90;;;;;;6256511;23;20039;-96
2021/03/15 04:25:02;;;;;;;1999.90;999.90;;;6.40;99.90;;;;;;6251703;23;20355;-96
2021/03/15 04:27:30;;;;;;;1999.90;999.90;;;6.40;99.90;;;;;;6250079;23;20319;-96
2021/03/15 04:29:58;;;;;;;1999.90;999.90;;;6.50;99.90;;;;;;6252671;23;20469;-96
2021/03/15 04:32:28;;;;;;;1999.90;999.90;;;6.40;99.90;;;;;;6253569;23;20031;-96
2021/03/15 04:34:57;;;;;;;1999.90;999.90;;;6.40;99.90;;;;;;6256382;23;20070;-96
2021/03/15 04:37:27;;;;;;;1999.90;999.90;;;6.40;99.90;;;;;;6257573;23;20027;-96
2021/03/15 04:39:56;;;;;;;1999.90;999.90;;;6.40;99.90;;;;;;6257619;23;20024;-96
2021/03/15 04:42:28;;;;;;;1999.90;999.90;;;6.50;99.90;;;;;;6257941;23;20035;-96
2021/03/15 04:44:57;;;;;;;1999.90;999.90;;;6.40;99.90;;;;;;6259948;23;20024;-96
2021/03/15 04:47:25;;;;;;;1999.90;999.90;;;6.50;99.90;;;;;;6259431;23;20020;-96
2021/03/15 04:49:54;;;;;;;1999.90;999.90;;;6.40;99.90;;;;;;6257828;23;20040;-96
2021/03/15 04:52:23;;;;;;;1999.90;999.90;;;6.40;99.90;;;;;;6259292;23;20028;-96
2021/03/15 04:54:51;;;;;;;1999.90;999.90;;;6.40;99.90;;;;;;6259404;23;20078;-96
2021/03/15 04:57:23;;;;;;;1999.90;999.90;;;6.30;99.90;;;;;;6260117;23;20026;-96
2021/03/15 04:59:52;;;;;;;1999.90;999.90;;;6.30;99.90;;;;;;6259072;23;20020;-96
2021/03/15 05:02:22;;;;;;;1999.90;999.90;;;6.30;99.90;;;;;;6257419;23;20024;-96
2021/03/15 05:04:51;;;;;;;1999.90;999.90;;;6.40;99.90;;;;;;6258848;23;20024;-96
2021/03/15 05:10:04;;;;;;;1999.90;999.90;;;6.30;99.90;;;;;;6261805;23;20024;-96
2021/03/15 05:12:34;;;;;;;1999.90;999.90;;;6.30;99.90;;;;;;6267030;23;20050;-96
2021/03/15 05:15:07;;;;;;;1999.90;999.90;;;6.30;99.90;;;;;;6268200;23;20031;-96
2021/03/15 05:17:39;;;;;;;1999.90;999.90;;;6.20;99.90;;;;;;6266341;23;20048;-96
2021/03/15 05:20:10;;;;;;;1999.90;999.90;;;6.20;99.90;;;;;;6263890;23;20024;-96
2021/03/15 05:22:41;;;;;;;1999.90;999.90;;;6.20;99.90;;;;;;6265012;23;20023;-96
2021/03/15 05:25:11;;;;;;;1999.90;999.90;;;6.20;99.90;;;;;;6261279;23;20024;-96
2021/03/15 05:27:41;;;;;;;1999.90;999.90;;;6.20;99.90;;;;;;6255767;23;20027;-96
2021/03/15 05:30:12;;;;;;;1999.90;999.90;;;6.20;99.90;;;;;;6254785;23;20048;-96
2021/03/15 05:32:45;;;;;;;1999.90;999.90;;;6.10;99.90;;;;;;6259830;23;20024;-96
2021/03/15 05:35:17;;;;;;;1999.90;999.90;;;6.10;99.90;;;;;;6269214;23;20024;-96
2021/03/15 05:38:01;;;;;;;1999.90;999.90;;;6.10;99.90;;;;;;6266185;23;20343;-96
2021/03/15 05:40:31;;;;;;;1999.90;999.90;;;6.10;99.90;;;;;;6261947;23;20032;-96
2021/03/15 05:43:14;;;;;;;1999.90;999.90;;;6.10;99.90;;;;;;6260372;23;20024;-96
2021/03/15 05:46:23;;;;;;;1999.90;999.90;;;6.10;99.90;;;;;;6259566;23;20063;-96
2021/03/15 05:49:23;;;;;;;1999.90;999.90;;;6.00;99.90;;;;;;6255573;23;20016;-96
2021/03/15 05:52:09;;;;;;;1999.90;999.90;;;6.00;99.90;;;;;;6265038;23;20043;-96
2021/03/15 05:55:15;;;;;;;1999.90;999.90;;;6.00;99.90;;;;;;6264462;23;20024;-96
2021/03/15 05:58:02;;;;;;;;;;;5.90;99.90;;;;;;6263997;23;20038;-96
2021/03/15 06:00:46;;;;;;;1999.90;999.90;;;6.00;99.90;;;;;;6258432;23;19963;-96
2021/03/15 06:03:38;;;;;;;1999.90;999.90;;;5.90;99.90;;;;;;6263007;23;20036;-96
2021/03/15 06:06:12;;;;;;;1999.90;999.90;;;5.90;99.90;;;;;;6267597;23;20008;-96
2021/03/15 06:08:46;;;;;;;1999.90;999.90;;;5.90;99.90;;;;;;6260156;23;20023;-96
2021/03/15 06:11:16;;;;;;;1999.90;999.90;;;5.90;99.90;;;;;;6258027;23;20474;-96
2021/03/15 06:13:49;;;;;;;1999.90;999.90;;;5.90;99.90;;;;;;6263614;23;20024;-96
2021/03/15 06:20:09;;;;;;;;;;;5.90;99.90;;;;;;6262167;23;20011;-96
2021/03/15 06:22:44;;;;;;;1999.90;999.90;;;5.90;99.90;;;;;;6258328;23;19915;-96
2021/03/15 06:25:13;;;;;;;1999.90;999.90;;;5.90;99.90;;;;;;6260160;23;20391;-96
2021/03/15 06:27:42;;;;;;;1999.90;999.90;;;5.80;99.90;;;;;;6260353;23;20016;-96
2021/03/15 06:30:12;;;;;;;1999.90;999.90;;;5.80;99.90;;;;;;6264047;23;20024;-96
2021/03/15 06:32:41;;;;;;;1999.90;999.90;;;5.90;99.90;;;;;;6258451;23;20074;-96
2021/03/15 06:35:13;;;;;;;1999.90;999.90;;;5.90;99.90;;;;;;6256957;23;20020;-96
2021/03/15 06:37:48;;;;;;;1999.90;999.90;;;5.90;99.90;;;;;;6258715;23;20068;-95
2021/03/15 06:40:19;;;;;;;1999.90;999.90;;;5.80;99.90;;;;;;6259959;23;20036;-96
2021/03/15 06:42:50;;;;;;;1999.90;999.90;;;5.90;99.90;;;;;;6261016;23;20412;-96
2021/03/15 06:45:20;;;;;;;1999.90;999.90;;;5.90;99.90;;;;;;6261224;23;20081;-96
2021/03/15 06:47:49;;;;;;;1999.90;999.90;;;5.90;99.90;;;;;;6260301;23;20047;-96
2021/03/15 06:50:28;;;;;;;1999.90;999.90;;;5.90;99.90;;;;;;6260011;23;20031;-96
2021/03/15 06:53:01;;;;;;;1999.90;999.90;;;5.90;99.90;;;;;;6262430;23;20027;-96
2021/03/15 06:55:44;;;;;;;1999.90;999.90;;;6.00;99.90;;;;;;6264770;23;20058;-96
2021/03/15 06:58:28;;;;;;;1999.90;999.90;;;6.00;99.90;;;;;;6262305;23;20051;-96
2021/03/15 07:12:37;;;;;;;1999.90;999.90;;;6.20;99.90;;;;;;6148135;23;20056;-96
2021/03/15 07:15:39;;;;;;;1999.90;999.90;;;6.20;99.90;;;;;;6207424;23;20024;-96
2021/03/15 07:21:35;;;;;;;1999.90;999.90;;;6.20;99.90;;;;;;6269118;23;20043;-96
2021/03/15 07:24:15;;;;;;;1999.90;999.90;;;6.20;99.90;;;;;;6269193;22;20082;-96
2021/03/15 07:26:55;;;;;;;1999.90;999.90;;;6.20;99.90;;;;;;6266950;23;20031;-96
2021/03/15 07:29:33;;;;;;;1999.90;999.90;;;6.30;99.90;;;;;;6269357;23;20089;-96
2021/03/15 07:32:45;;;;;;;1999.90;999.90;;;6.30;99.90;;;;;;6271635;23;20077;-96
2021/03/15 07:38:25;;;;;;;1999.90;999.90;;;6.30;99.90;;;;;;6270260;23;20020;-96
2021/03/15 07:44:50;;;;;;;1999.90;999.90;;;6.40;99.90;;;;;;6270935;23;20031;-96
2021/03/15 07:51:08;;;;;;;1999.90;999.90;;;6.50;99.90;;;;;;6272967;23;20008;-96
2021/03/15 07:56:45;;;;;;;;;;;6.60;99.90;;;;;;6269211;23;19912;-96
2021/03/15 08:00:00;;;;;;;1999.90;999.90;;;6.60;99.90;;;;;;6272474;23;19915;-96
2021/03/15 08:03:06;;;;;;;;;;;6.60;99.90;;;;;;6272396;23;20074;-96
2021/03/15 08:20:19;;;;;;;1999.90;999.90;;;6.70;99.90;;;;;;6181473;23;20016;-96
2021/03/15 08:26:43;;;;;;;1999.90;999.90;;;6.80;99.90;;;;;;6180276;23;20025;-96
2021/03/15 08:29:24;;;;;;;1999.90;999.90;;;6.80;99.90;;;;;;6179458;23;20022;-96
2021/03/15 08:35:21;;;;;;;1999.90;999.90;;;6.90;99.90;;;;;;6180178;23;20032;-96
2021/03/15 08:45:33;;;;;;;1999.90;999.90;;;7.10;99.90;;;;;;6179729;23;20025;-96
2021/03/15 08:48:41;;;;;;;1999.90;999.90;;;7.20;99.90;;;;;;6272578;23;20020;-96
2021/03/15 08:51:49;;;;;;;1999.90;999.90;;;7.20;99.90;;;;;;6271014;23;20051;-96
2021/03/15 08:57:43;;;;;;;1999.90;999.90;;;7.30;99.90;;;;;;6267629;23;20020;-96
2021/03/15 09:00:38;;;;;;;1999.90;999.90;;;7.30;99.90;;;;;;6269912;23;20012;-96
2021/03/15 09:03:19;;;;;;;1999.90;999.90;;;7.20;99.90;;;;;;6269265;23;20028;-96
2021/03/15 09:05:56;;;;;;;1999.90;999.90;;;7.30;99.90;;;;;;6260933;23;20020;-96
2021/03/15 09:09:00;;;;;;;1999.90;999.90;;;7.30;99.90;;;;;;6270884;23;20075;-96
2021/03/15 09:12:25;;;;;;;1999.90;999.90;;;7.30;99.90;;;;;;6270127;23;20024;-96
2021/03/15 09:15:06;;;;;;;1999.90;999.90;;;7.30;99.90;;;;;;6177812;23;20021;-96
2021/03/15 09:18:21;;;;;;;1999.90;999.90;;;7.40;99.90;;;;;;6178184;23;20021;-96
2021/03/15 09:21:13;;;;;;;1999.90;999.90;;;7.40;99.90;;;;;;6246224;23;20034;-96
2021/03/15 09:23:43;;;;;;;1999.90;999.90;;;7.40;99.90;;;;;;6269413;23;20396;-96
2021/03/15 09:26:39;;;;;;;1999.90;999.90;;;7.40;99.90;;;;;;6269536;23;20030;-96
2021/03/15 09:29:17;;;;;;;1999.90;999.90;;;7.40;99.90;;;;;;6269479;23;20020;-96
2021/03/15 09:32:09;;;;;;;1999.90;999.90;;;7.40;99.90;;;;;;6268381;23;20024;-96
2021/03/15 09:34:54;;;;;;;1999.90;999.90;;;7.40;99.90;;;;;;6268333;23;20024;-96
2021/03/15 09:37:40;;;;;;;1999.90;999.90;;;7.50;99.90;;;;;;6267375;23;20031;-96
2021/03/15 09:40:31;;;;;;;1999.90;999.90;;;7.50;99.90;;;;;;6264607;23;20028;-96
2021/03/15 09:46:13;;;;;;;1999.90;999.90;;;7.60;99.90;;;;;;6265356;23;20038;-96
2021/03/15 09:48:51;;;;;;;1999.90;999.90;;;7.70;99.90;;;;;;6265117;23;20024;-96
2021/03/15 09:51:29;;;;;;;1999.90;999.90;;;7.70;99.90;;;;;;6273038;23;20008;-96
2021/03/15 09:54:08;;;;;;;1999.90;999.90;;;7.80;99.90;;;;;;6272961;23;20023;-96
2021/03/15 09:57:10;;;;;;;1999.90;999.90;;;7.80;99.90;;;;;;6273726;22;20034;-96
2021/03/15 10:00:10;;;;;;;1999.90;999.90;;;7.80;99.90;;;;;;6219894;23;20004;-96
2021/03/15 10:03:12;;;;;;;1999.90;999.90;;;7.80;99.90;;;;;;6269352;23;20026;-96
2021/03/15 10:05:47;;;;;;;1999.90;999.90;;;7.90;99.90;;;;;;6269177;23;20024;-96
2021/03/15 10:08:21;;;;;;;1999.90;999.90;;;7.90;99.90;;;;;;6270383;23;20012;-96
2021/03/15 10:11:02;;;;;;;1999.90;999.90;;;8.00;99.90;;;;;;6268240;23;20024;-96
2021/03/15 10:13:41;;;;;;;1999.90;999.90;;;8.00;99.90;;;;;;6269120;23;20032;-96
2021/03/15 10:16:26;;;;;;;1999.90;999.90;;;8.00;99.90;;;;;;6266648;23;20027;-96
2021/03/15 10:23:32;;;;;;;1999.90;999.90;;;8.00;99.90;;;;;;6263430;23;20023;-96
2021/03/15 10:26:28;;;;;;;1999.90;999.90;;;8.10;99.90;;;;;;6269633;23;20047;-96
2021/03/15 11:31:20;;;;;;;1999.90;999.90;;;8.70;99.90;;;;;;6226882;22;20356;-95
2021/03/15 11:53:19;;;;;;;1999.90;999.90;;;8.90;99.90;;;;;;5947543;23;20029;-96
2021/03/15 12:03:33;;;;;;;1999.90;999.90;;;8.90;99.90;;;;;;5967007;24;20432;-96
2021/03/15 12:06:11;;;;;;;1999.90;999.90;;;8.70;99.90;;;;;;5959274;24;20103;-96
2021/03/15 12:08:42;;;;;;;1999.90;999.90;;;8.50;99.90;;;;;;6095318;23;20069;-96
2021/03/15 12:11:09;;;;;;;1999.90;999.90;;;8.50;99.90;;;;;;6133050;23;20029;-96
2021/03/15 12:13:36;;;;;;;1999.90;999.90;;;8.70;99.90;;;;;;6126764;23;20406;-95
2021/03/15 12:16:06;;;;;;;1999.90;999.90;;;8.70;99.90;;;;;;6126827;23;20045;-95
2021/03/15 12:18:35;;;;;;;1999.90;999.90;;;8.80;99.90;;;;;;6128349;23;20034;-96
2021/03/15 12:21:02;;;;;;;1999.90;999.90;;;8.90;99.90;;;;;;6128875;23;20027;-96
2021/03/15 12:23:30;;;;;;;1999.90;999.90;;;8.90;99.90;;;;;;6128146;23;20083;-95
2021/03/15 12:25:57;;;;;;;1999.90;999.90;;;8.90;99.90;;;;;;6186165;23;20024;-96
2021/03/15 12:28:24;;;;;;;1999.90;999.90;;;8.90;99.90;;;;;;6217459;23;20079;-96
2021/03/15 12:34:34;;;;;;;1999.90;999.90;;;8.80;99.90;;;;;;6220739;23;20008;-96
2021/03/15 12:37:02;;;;;;;1999.90;999.90;;;8.70;99.90;;;;;;6224536;22;20031;-96
2021/03/15 12:43:31;;;;;;;1999.90;999.90;;;8.70;99.90;;;;;;6218493;23;20070;-96
2021/03/15 12:45:58;;;;;;;1999.90;999.90;;;8.60;99.90;;;;;;6219149;23;20094;-94
2021/03/15 12:48:25;;;;;;;1999.90;999.90;;;8.60;99.90;;;;;;6218500;23;20016;-95
2021/03/15 12:50:54;;;;;;;1999.90;999.90;;;8.60;99.90;;;;;;6218490;23;20025;-95
2021/03/15 13:04:51;;;;;;;1999.90;999.90;;;8.60;99.90;;;;;;6196793;23;20035;-96
2021/03/15 13:07:20;;;;;;;1999.90;999.90;;;8.60;99.90;;;;;;6218822;23;20025;-94
2021/03/15 13:09:48;;;;;;;1999.90;999.90;;;8.50;99.90;;;;;;6218798;23;20017;-95
2021/03/15 13:12:18;;;;;;;1999.90;999.90;;;8.50;99.90;;;;;;6218837;23;20024;-95
2021/03/15 13:14:48;;;;;;;1999.90;999.90;;;8.50;99.90;;;;;;6218605;22;20474;-96
2021/03/15 13:17:15;;;;;;;1999.90;999.90;;;8.40;99.90;;;;;;6218317;23;20078;-95
2021/03/15 13:19:43;;;;;;;1999.90;999.90;;;8.40;99.90;;;;;;6220096;23;20017;-96
2021/03/15 13:22:11;;;;;;;1999.90;999.90;;;8.40;99.90;;;;;;6227723;23;20047;-96
2021/03/15 13:24:39;;;;;;;1999.90;999.90;;;8.30;99.90;;;;;;6219615;23;20020;-96
2021/03/15 13:27:07;;;;;;;1999.90;999.90;;;8.30;99.90;;;;;;6218415;23;20042;-96
2021/03/15 13:29:34;;;;;;;1999.90;999.90;;;8.40;99.90;;;;;;6218308;23;20522;-94
2021/03/15 13:32:01;;;;;;;1999.90;999.90;;;8.40;99.90;;;;;;6218142;23;20025;-95
2021/03/15 13:34:29;;;;;;;1999.90;999.90;;;8.50;99.90;;;;;;6218407;23;20021;-95
2021/03/15 13:36:56;;;;;;;1999.90;999.90;;;8.60;99.90;;;;;;6218580;23;20494;-95
2021/03/15 13:39:24;;;;;;;1999.90;999.90;;;8.70;99.90;;;;;;6218599;23;20399;-96
2021/03/15 13:42:05;;;;;;;1999.90;999.90;;;8.70;99.90;;;;;;6227448;23;20032;-96
2021/03/15 13:47:16;;;;;;;1999.90;999.90;;;8.70;99.90;;;;;;6236066;23;20024;-96
2021/03/15 13:49:47;;;;;;;1999.90;999.90;;;8.70;99.90;;;;;;6222919;23;20099;-96
2021/03/15 13:52:15;;;;;;;1999.90;999.90;;;8.70;99.90;;;;;;6221590;23;20488;-95
2021/03/15 13:55:15;;;;;;;1999.90;999.90;;;8.70;99.90;;;;;;6229294;23;20025;-96
2021/03/15 13:58:19;;;;;;;1999.90;999.90;;;8.80;99.90;;;;;;6232785;23;20059;-96
2021/03/15 14:08:27;;;;;;;1999.90;999.90;;;9.10;99.90;;;;;;6207337;23;20040;-96
2021/03/15 14:11:23;;;;;;;1999.90;999.90;;;9.20;99.90;;;;;;6238186;23;20024;-95
2021/03/15 14:17:05;;;;;;;1999.90;999.90;;;9.20;99.90;;;;;;6235657;23;20025;-96
2021/03/15 14:34:59;;;;;;;1999.90;999.90;;;9.00;99.90;;;;;;6237716;23;20058;-96
2021/03/15 14:37:51;;;;;;;1999.90;999.90;;;9.10;99.90;;;;;;6217508;23;20031;-96
2021/03/15 14:40:54;;;;;;;1999.90;999.90;;;9.20;99.90;;;;;;6238668;23;20036;-96
2021/03/15 14:43:47;;;;;;;1999.90;999.90;;;9.30;99.90;;;;;;6235096;23;20013;-96
2021/03/15 14:46:34;;;;;;;1999.90;999.90;;;9.50;99.90;;;;;;6233192;23;20030;-96
2021/03/15 14:49:05;;;;;;;1999.90;999.90;;;9.60;99.90;;;;;;6220354;23;20027;-96
2021/03/15 14:51:33;;;;;;;1999.90;999.90;;;9.50;99.90;;;;;;6221500;23;20025;-96
2021/03/15 14:54:00;;;;;;;1999.90;999.90;;;9.40;99.90;;;;;;6220240;23;20024;-96
2021/03/15 15:00:23;;;;;;;1999.90;999.90;;;9.30;99.90;;;;;;6196881;23;20306;-96
2021/03/15 15:02:55;;;;;;;1999.90;999.90;;;9.30;99.90;;;;;;6220016;23;20048;-95
2021/03/15 15:05:23;;;;;;;1999.90;999.90;;;9.40;99.90;;;;;;6221356;23;20036;-96
2021/03/15 15:24:41;;;;;;;1999.90;999.90;;;9.60;99.90;;;;;;6208569;22;20043;-95
2021/03/15 15:27:09;;;;;;;1999.90;999.90;;;9.50;99.90;;;;;;6250559;23;20028;-96
2021/03/15 15:29:36;;;;;;;1999.90;999.90;;;9.50;99.90;;;;;;6250760;23;20035;-96
2021/03/15 15:38:19;;;;;;;1999.90;999.90;;;9.10;99.90;;;;;;6268947;23;20020;-96
2021/03/15 15:40:58;;;;;;;1999.90;999.90;;;9.00;99.90;;;;;;6267104;23;20076;-96
2021/03/15 15:44:06;;;;;;;1999.90;999.90;;;8.90;99.90;;;;;;6267673;23;20024;-96
2021/03/15 16:02:08;;;;;;;1999.90;999.90;;;8.70;99.90;;;;;;6177930;23;20048;-96
2021/03/15 16:13:38;;;;;;;1999.90;999.90;;;8.50;99.90;;;;;;6223799;23;20055;-96
2021/03/15 16:19:51;;;;;;;1999.90;999.90;;;8.50;99.90;;;;;;6221349;23;20035;-96
2021/03/15 16:22:18;;;;;;;1999.90;999.90;;;8.40;99.90;;;;;;6222891;23;20024;-96
2021/03/15 16:24:48;;;;;;;1999.90;999.90;;;8.30;99.90;;;;;;6223436;23;20036;-96
2021/03/15 16:27:34;;;;;;;1999.90;999.90;;;8.30;99.90;;;;;;6223100;23;20025;-96
2021/03/15 16:30:07;;;;;;;1999.90;999.90;;;8.30;99.90;;;;;;6224633;23;20017;-96
2021/03/15 16:32:36;;;;;;;1999.90;999.90;;;8.30;99.90;;;;;;6225638;23;20028;-96
2021/03/15 16:35:05;;;;;;;1999.90;999.90;;;8.30;99.90;;;;;;6224966;23;20029;-96
2021/03/15 16:37:33;;;;;;;1999.90;999.90;;;8.20;99.90;;;;;;6224753;23;20436;-96
2021/03/15 16:40:03;;;;;;;1999.90;999.90;;;8.20;99.90;;;;;;6220498;23;20023;-95
2021/03/15 16:42:31;;;;;;;1999.90;999.90;;;8.20;99.90;;;;;;6221650;23;20483;-96
2021/03/15 16:44:58;;;;;;;1999.90;999.90;;;8.10;99.90;;;;;;6221203;23;20031;-95
2021/03/15 16:47:29;;;;;;;1999.90;999.90;;;8.10;99.90;;;;;;6221209;23;20092;-96
2021/03/15 16:49:57;;;;;;;1999.90;999.90;;;8.00;99.90;;;;;;6222151;23;20021;-96
2021/03/15 16:52:25;;;;;;;1999.90;999.90;;;8.10;99.90;;;;;;6220121;23;20024;-96
2021/03/15 16:54:53;;;;;;;1999.90;999.90;;;8.00;99.90;;;;;;6219743;23;20047;-96
2021/03/15 16:57:20;;;;;;;1999.90;999.90;;;8.00;99.90;;;;;;6222112;23;20094;-96
2021/03/15 16:59:53;;;;;;;1999.90;999.90;;;8.00;99.90;;;;;;6222572;23;20021;-96
2021/03/15 17:02:34;;;;;;;1999.90;999.90;;;8.00;99.90;;;;;;6222942;23;20024;-96
2021/03/15 17:05:06;;;;;;;1999.90;999.90;;;7.90;99.90;;;;;;6221981;23;20372;-96
2021/03/15 17:07:37;;;;;;;1999.90;999.90;;;7.90;99.90;;;;;;6221120;23;20020;-96
2021/03/15 17:10:06;;;;;;;1999.90;999.90;;;7.90;99.90;;;;;;6221534;23;20407;-96
2021/03/15 17:12:37;;;;;;;1999.90;999.90;;;7.90;99.90;;;;;;6219624;23;20083;-96
2021/03/15 17:15:06;;;;;;;1999.90;999.90;;;7.80;99.90;;;;;;6218884;23;20339;-95
2021/03/15 17:17:33;;;;;;;1999.90;999.90;;;7.80;99.90;;;;;;6218885;23;20055;-96